createdAt,value
2023-04-21T00:00:56.512Z,11.88
2023-04-21T00:03:24.443Z,10.30
2023-04-21T00:05:53.022Z,10.93
2023-04-21T00:08:20.599Z,10.40
2023-04-21T00:10:49.184Z,10.48
2023-04-21T00:13:16.523Z,10.38
2023-04-21T00:15:44.365Z,9.70
2023-04-21T00:18:14.079Z,9.40
2023-04-21T00:20:42.889Z,9.70
2023-04-21T00:23:11.218Z,9.45
2023-04-21T00:25:38.329Z,10.13
2023-04-21T00:28:05.573Z,8.95
2023-04-21T00:30:32.476Z,8.65
2023-04-21T00:32:59.554Z,8.20
2023-04-21T00:35:26.854Z,8.95
2023-04-21T00:37:55.080Z,10.00
2023-04-21T00:40:22.324Z,9.40
2023-04-21T00:42:49.418Z,9.07
2023-04-21T00:45:16.445Z,9.50
2023-04-21T00:47:44.899Z,8.68
2023-04-21T00:50:12.991Z,8.77
2023-04-21T00:52:42.121Z,8.82
2023-04-21T00:55:09.660Z,8.68
2023-04-21T00:57:40.950Z,9.13
2023-04-21T01:00:09.157Z,8.40
2023-04-21T01:02:38.162Z,8.68
2023-04-21T01:05:09.654Z,8.35
2023-04-21T01:07:38.992Z,8.38
2023-04-21T01:10:07.776Z,8.27
2023-04-21T01:12:43.300Z,8.73
2023-04-21T01:15:12.937Z,8.30
2023-04-21T01:17:40.355Z,8.52
2023-04-21T01:20:13.934Z,8.52
2023-04-21T01:22:42.558Z,8.15
2023-04-21T01:25:10.872Z,8.02
2023-04-21T01:27:37.907Z,8.80
2023-04-21T01:30:09.136Z,8.52
2023-04-21T01:32:39.219Z,8.30
2023-04-21T01:35:08.660Z,9.32
2023-04-21T01:37:38.284Z,8.13
2023-04-21T01:40:08.749Z,8.18
2023-04-21T01:42:39.561Z,8.20
2023-04-21T01:45:07.415Z,8.38
2023-04-21T01:47:34.447Z,8.13
2023-04-21T01:50:01.588Z,7.88
2023-04-21T01:52:28.592Z,8.50
2023-04-21T01:54:55.997Z,8.55
2023-04-21T01:57:23.061Z,8.25
2023-04-21T01:59:51.447Z,7.95
2023-04-21T02:02:18.578Z,8.43
2023-04-21T02:04:45.626Z,8.90
2023-04-21T02:07:12.703Z,8.23
2023-04-21T02:09:41.225Z,8.32
2023-04-21T02:12:08.539Z,8.38
2023-04-21T02:14:37.663Z,8.50
2023-04-21T02:17:07.520Z,9.38
2023-04-21T02:19:36.259Z,9.32
2023-04-21T02:22:04.160Z,8.55
2023-04-21T02:24:31.229Z,9.13
2023-04-21T02:26:58.703Z,8.95
2023-04-21T02:29:28.807Z,8.45
2023-04-21T02:32:03.028Z,8.82
2023-04-21T02:34:32.593Z,8.70
2023-04-21T02:36:59.970Z,8.85
2023-04-21T02:39:27.089Z,8.63
2023-04-21T02:41:54.165Z,8.30
2023-04-21T02:44:21.844Z,8.70
2023-04-21T02:46:49.094Z,8.68
2023-04-21T02:49:16.083Z,8.93
2023-04-21T02:51:44.376Z,8.57
2023-04-21T02:54:11.368Z,8.93
2023-04-21T02:56:38.373Z,9.20
2023-04-21T02:59:06.719Z,9.30
2023-04-21T03:01:33.707Z,8.50
2023-04-21T03:04:01.213Z,8.75
2023-04-21T03:06:29.705Z,9.00
2023-04-21T03:08:57.846Z,9.05
2023-04-21T03:11:27.872Z,8.43
2023-04-21T03:13:54.839Z,8.32
2023-04-21T03:16:21.863Z,8.00
2023-04-21T03:18:48.791Z,7.95
2023-04-21T03:21:16.369Z,7.55
2023-04-21T03:23:43.419Z,7.65
2023-04-21T03:26:10.457Z,7.78
2023-04-21T03:28:37.467Z,7.45
2023-04-21T03:31:04.410Z,7.97
2023-04-21T03:33:31.510Z,7.57
2023-04-21T03:35:58.473Z,8.07
2023-04-21T03:38:25.644Z,8.00
2023-04-21T03:40:52.617Z,8.35
2023-04-21T03:43:19.641Z,8.38
2023-04-21T03:45:46.870Z,8.27
2023-04-21T03:48:13.909Z,7.72
2023-04-21T03:50:40.903Z,7.68
2023-04-21T03:53:07.903Z,7.40
2023-04-21T03:55:34.893Z,7.50
2023-04-21T03:58:02.882Z,7.82
2023-04-21T04:00:29.821Z,8.10
2023-04-21T04:02:57.075Z,7.28
2023-04-21T04:05:24.307Z,7.75
2023-04-21T04:07:51.377Z,6.82
2023-04-21T04:10:18.375Z,7.40
2023-04-21T04:12:45.320Z,7.07
2023-04-21T04:15:12.400Z,7.60
2023-04-21T04:17:39.437Z,7.70
2023-04-21T04:20:08.494Z,7.82
2023-04-21T04:22:37.124Z,7.78
2023-04-21T04:25:05.440Z,6.95
2023-04-21T04:27:32.500Z,7.32
2023-04-21T04:30:00.151Z,7.97
2023-04-21T04:32:30.139Z,7.38
2023-04-21T04:34:57.353Z,7.35
2023-04-21T04:37:25.668Z,6.80
2023-04-21T04:39:56.866Z,7.28
2023-04-21T04:42:25.273Z,6.82
2023-04-21T04:44:56.069Z,7.18
2023-04-21T04:47:24.880Z,7.22
2023-04-21T04:49:52.459Z,7.57
2023-04-21T04:52:19.398Z,6.90
2023-04-21T04:54:46.343Z,7.38
2023-04-21T04:57:13.362Z,6.45
2023-04-21T04:59:41.779Z,6.72
2023-04-21T05:02:11.074Z,7.45
2023-04-21T05:04:38.831Z,7.60
2023-04-21T05:07:07.779Z,6.68
2023-04-21T05:09:34.981Z,8.10
2023-04-21T05:12:02.969Z,7.50
2023-04-21T05:14:31.407Z,7.88
2023-04-21T05:17:00.097Z,7.93
2023-04-21T05:19:27.658Z,8.25
2023-04-21T05:22:00.912Z,8.20
2023-04-21T05:24:28.644Z,8.65
2023-04-21T05:26:55.548Z,8.65
2023-04-21T05:29:23.764Z,7.93
2023-04-21T05:31:51.707Z,7.95
2023-04-21T05:34:19.226Z,8.32
2023-04-21T05:36:47.422Z,8.43
2023-04-21T05:39:14.413Z,8.23
2023-04-21T05:41:42.463Z,8.02
2023-04-21T05:44:12.360Z,7.90
2023-04-21T05:46:39.418Z,8.52
2023-04-21T05:49:06.510Z,9.25
2023-04-21T05:51:33.772Z,8.90
2023-04-21T05:54:00.759Z,8.95
2023-04-21T05:56:27.725Z,9.18
2023-04-21T05:58:54.997Z,9.52
2023-04-21T06:01:22.197Z,9.65
2023-04-21T06:03:50.409Z,8.85
2023-04-21T06:06:17.832Z,8.70
2023-04-21T06:08:44.719Z,9.10
2023-04-21T06:11:11.729Z,8.57
2023-04-21T06:13:42.308Z,8.65
2023-04-21T06:16:11.827Z,9.40
2023-04-21T06:18:40.521Z,9.70
2023-04-21T06:21:07.986Z,8.73
2023-04-21T06:23:35.083Z,9.32
2023-04-21T06:26:07.202Z,9.57
2023-04-21T06:28:35.504Z,8.73
2023-04-21T06:31:04.940Z,9.40
2023-04-21T06:33:34.089Z,9.25
2023-04-21T06:36:01.162Z,8.98
2023-04-21T06:38:28.143Z,9.18
2023-04-21T06:40:55.241Z,8.40
2023-04-21T06:43:22.170Z,8.98
2023-04-21T06:45:49.174Z,9.57
2023-04-21T06:48:16.706Z,9.10
2023-04-21T06:50:44.816Z,8.00
2023-04-21T06:53:12.097Z,8.60
2023-04-21T06:55:40.308Z,8.52
2023-04-21T06:58:07.810Z,7.90
2023-04-21T07:00:34.742Z,8.15
2023-04-21T07:03:01.874Z,8.18
2023-04-21T07:05:29.319Z,8.02
2023-04-21T07:07:59.889Z,8.23
2023-04-21T07:10:28.275Z,7.05
2023-04-21T07:12:56.277Z,8.25
2023-04-21T07:15:24.648Z,7.63
2023-04-21T07:17:52.055Z,6.95
2023-04-21T07:20:19.107Z,7.00
2023-04-21T07:22:46.151Z,7.00
2023-04-21T07:25:13.083Z,7.43
2023-04-21T07:27:40.389Z,8.10
2023-04-21T07:30:08.015Z,7.60
2023-04-21T07:32:35.294Z,7.20
2023-04-21T07:35:03.071Z,7.40
2023-04-21T07:37:31.556Z,6.38
2023-04-21T07:40:00.293Z,6.68
2023-04-21T07:42:27.871Z,6.75
2023-04-21T07:44:56.144Z,6.90
2023-04-21T07:47:23.500Z,7.15
2023-04-21T07:49:53.674Z,7.07
2023-04-21T07:52:21.819Z,6.60
2023-04-21T07:54:48.867Z,6.97
2023-04-21T07:57:15.870Z,7.22
2023-04-21T07:59:43.418Z,5.80
2023-04-21T08:02:10.624Z,6.07
2023-04-21T08:04:38.510Z,6.10
2023-04-21T08:07:05.814Z,5.82
2023-04-21T08:09:33.163Z,6.90
2023-04-21T08:12:00.199Z,6.40
2023-04-21T08:14:28.416Z,5.97
2023-04-21T08:16:57.087Z,5.82
2023-04-21T08:19:24.540Z,5.70
2023-04-21T08:21:54.762Z,5.88
2023-04-21T08:24:21.996Z,5.80
2023-04-21T08:26:49.127Z,6.07
2023-04-21T08:29:16.343Z,5.05
2023-04-21T08:31:43.465Z,5.57
2023-04-21T08:34:12.189Z,5.43
2023-04-21T08:36:39.127Z,5.38
2023-04-21T08:39:06.437Z,5.53
2023-04-21T08:41:33.419Z,5.28
2023-04-21T08:44:00.440Z,5.10
2023-04-21T08:46:28.558Z,4.90
2023-04-21T08:48:57.996Z,5.28
2023-04-21T08:51:28.089Z,5.60
2023-04-21T08:53:55.970Z,4.90
2023-04-21T08:56:29.290Z,5.13
2023-04-21T08:58:56.982Z,5.03
2023-04-21T09:01:24.050Z,4.60
2023-04-21T09:03:51.140Z,4.90
2023-04-21T09:06:18.444Z,4.68
2023-04-21T09:08:56.071Z,4.72
2023-04-21T09:11:23.939Z,5.28
2023-04-21T09:13:51.020Z,4.82
2023-04-21T09:16:21.384Z,5.32
2023-04-21T09:18:49.736Z,4.47
2023-04-21T09:21:18.368Z,4.35
2023-04-21T09:23:55.676Z,4.57
2023-04-21T09:26:23.378Z,4.60
2023-04-21T09:28:52.057Z,5.03
2023-04-21T09:31:21.574Z,4.90
2023-04-21T09:33:58.556Z,4.80
2023-04-21T09:36:31.140Z,4.55
2023-04-21T09:44:01.788Z,4.43
2023-04-21T09:46:32.399Z,4.57
2023-04-21T09:49:01.657Z,4.43
2023-04-21T09:52:02.204Z,3.97
2023-04-21T09:54:29.713Z,4.38
2023-04-21T09:57:03.840Z,3.97
2023-04-21T09:59:45.525Z,3.90
2023-04-21T10:02:15.639Z,4.45
2023-04-21T10:04:44.502Z,4.20
2023-04-21T10:07:12.697Z,4.22
2023-04-21T10:09:47.662Z,3.78
2023-04-21T10:12:15.672Z,4.03
2023-04-21T10:14:42.603Z,4.07
2023-04-21T10:17:10.977Z,3.70
2023-04-21T10:19:48.325Z,3.88
2023-04-21T10:22:15.438Z,3.65
2023-04-21T10:24:45.017Z,4.30
2023-04-21T10:27:13.179Z,3.97
2023-04-21T10:29:55.739Z,3.78
2023-04-21T10:32:43.468Z,3.85
2023-04-21T10:35:21.730Z,4.05
2023-04-21T10:37:51.530Z,3.85
2023-04-21T10:40:44.958Z,4.05
2023-04-21T10:43:49.245Z,3.40
2023-04-21T10:46:36.202Z,3.60
2023-04-21T10:49:12.152Z,3.40
2023-04-21T10:52:03.643Z,4.05
2023-04-21T10:54:43.444Z,3.22
2023-04-21T10:57:13.608Z,2.88
2023-04-21T10:59:41.104Z,3.17
2023-04-21T11:02:28.442Z,3.00
2023-04-21T11:04:56.472Z,3.25
2023-04-21T11:07:24.814Z,3.08
2023-04-21T11:10:04.165Z,2.95
2023-04-21T11:12:36.147Z,3.08
2023-04-21T11:15:09.389Z,3.22
2023-04-21T11:17:39.309Z,3.13
2023-04-21T11:20:08.325Z,3.33
2023-04-21T11:22:37.316Z,3.13
2023-04-21T11:25:07.532Z,3.13
2023-04-21T11:27:38.740Z,3.22
2023-04-21T11:30:06.565Z,3.03
2023-04-21T11:32:34.289Z,3.38
2023-04-21T11:35:02.725Z,3.05
2023-04-21T11:37:33.576Z,3.30
2023-04-21T11:40:01.787Z,2.92
2023-04-21T11:42:31.225Z,3.53
2023-04-21T11:44:59.490Z,3.33
2023-04-21T11:47:28.504Z,3.58
2023-04-21T11:50:01.111Z,3.15
2023-04-21T11:52:33.333Z,2.85
2023-04-21T11:55:04.769Z,3.10
2023-04-21T11:57:33.428Z,3.38
2023-04-21T12:00:01.962Z,3.47
2023-04-21T12:02:33.679Z,3.30
2023-04-21T12:05:12.179Z,3.30
2023-04-21T12:07:43.239Z,3.25
2023-04-21T12:10:17.761Z,3.40
2023-04-21T12:12:45.877Z,3.00
2023-04-21T12:15:21.831Z,3.08
2023-04-21T12:17:54.094Z,3.35
2023-04-21T12:20:24.688Z,3.30
2023-04-21T12:22:52.500Z,3.58
2023-04-21T12:25:19.596Z,3.58
2023-04-21T12:27:59.577Z,3.45
2023-04-21T12:30:26.638Z,3.22
2023-04-21T12:32:55.889Z,3.17
2023-04-21T12:35:23.485Z,3.30
2023-04-21T12:37:52.947Z,3.53
2023-04-21T12:40:20.096Z,3.58
2023-04-21T12:42:49.483Z,3.10
2023-04-21T12:45:16.968Z,3.10
2023-04-21T12:47:46.775Z,3.15
2023-04-21T12:50:15.732Z,3.35
2023-04-21T12:52:42.624Z,2.83
2023-04-21T12:55:09.705Z,2.88
2023-04-21T12:57:36.901Z,2.83
2023-04-21T13:00:04.486Z,3.80
2023-04-21T13:02:37.136Z,4.00
2023-04-21T13:05:05.120Z,3.67
2023-04-21T13:07:34.072Z,3.60
2023-04-21T13:10:01.188Z,3.70
2023-04-21T13:12:28.217Z,3.80
2023-04-21T13:14:55.110Z,3.53
2023-04-21T13:17:22.227Z,3.30
2023-04-21T13:19:49.301Z,3.28
2023-04-21T13:22:17.077Z,3.80
2023-04-21T13:24:44.081Z,3.10
2023-04-21T13:27:11.080Z,3.03
2023-04-21T13:29:38.155Z,3.95
2023-04-21T13:32:07.957Z,3.50
2023-04-21T13:34:35.354Z,3.08
2023-04-21T13:37:06.085Z,3.67
2023-04-21T13:39:35.006Z,3.40
2023-04-21T13:42:02.578Z,3.20
2023-04-21T13:44:30.594Z,3.90
2023-04-21T13:46:58.274Z,3.20
2023-04-21T13:49:25.501Z,3.67
2023-04-21T13:51:54.539Z,3.30
2023-04-21T13:54:21.765Z,3.50
2023-04-21T13:56:51.081Z,3.30
2023-04-21T13:59:21.230Z,3.78
2023-04-21T14:01:48.425Z,3.70
2023-04-21T14:04:15.630Z,3.70
2023-04-21T14:06:42.863Z,3.55
2023-04-21T14:09:10.925Z,3.30
2023-04-21T14:11:39.308Z,2.95
2023-04-21T14:14:09.974Z,3.28
2023-04-21T14:16:38.387Z,3.40
2023-04-21T14:19:06.190Z,2.95
2023-04-21T14:21:33.616Z,3.30
2023-04-21T14:24:00.982Z,3.30
2023-04-21T14:26:28.091Z,3.05
2023-04-21T14:28:56.841Z,3.05
2023-04-21T14:31:23.865Z,3.15
2023-04-21T14:33:51.557Z,3.35
2023-04-21T14:36:21.431Z,3.13
2023-04-21T14:38:48.523Z,3.50
2023-04-21T14:41:15.748Z,3.47
2023-04-21T14:43:42.715Z,3.40
2023-04-21T14:46:10.521Z,3.10
2023-04-21T14:48:37.766Z,3.40
2023-04-21T14:51:09.410Z,3.20
2023-04-21T14:53:36.533Z,3.22
2023-04-21T14:56:03.702Z,3.47
2023-04-21T14:58:30.727Z,3.28
2023-04-21T15:00:58.485Z,3.50
2023-04-21T15:03:26.394Z,3.70
2023-04-21T15:05:53.728Z,3.50
2023-04-21T15:08:20.683Z,4.28
2023-04-21T15:10:47.950Z,3.63
2023-04-21T15:13:17.397Z,3.70
2023-04-21T15:15:44.507Z,3.00
2023-04-21T15:18:11.540Z,3.67
2023-04-21T15:20:45.362Z,3.78
2023-04-21T15:23:14.836Z,3.58
2023-04-21T15:25:42.436Z,3.72
2023-04-21T15:28:09.805Z,3.30
2023-04-21T15:30:37.139Z,3.40
2023-04-21T15:33:04.666Z,3.47
2023-04-21T15:35:31.774Z,3.50
2023-04-21T15:37:59.849Z,3.47
2023-04-21T15:40:27.321Z,3.70
2023-04-21T15:42:54.332Z,3.70
2023-04-21T15:45:24.565Z,3.13
2023-04-21T15:47:52.447Z,3.00
2023-04-21T15:50:19.960Z,3.50
2023-04-21T15:52:47.152Z,3.83
2023-04-21T15:55:17.025Z,3.45
2023-04-21T15:57:45.584Z,3.85
2023-04-21T16:00:13.285Z,3.45
2023-04-21T16:02:40.569Z,3.63
2023-04-21T16:05:09.876Z,3.35
2023-04-21T16:07:37.197Z,3.60
2023-04-21T16:10:04.400Z,3.00
2023-04-21T16:12:31.389Z,3.55
2023-04-21T16:15:03.954Z,3.70
2023-04-21T16:17:39.429Z,3.50
2023-04-21T16:20:08.178Z,3.30
2023-04-21T16:22:35.285Z,3.85
2023-04-21T16:25:02.453Z,3.95
2023-04-21T16:27:29.485Z,3.63
2023-04-21T16:29:56.548Z,3.78
2023-04-21T16:32:23.696Z,3.25
2023-04-21T16:34:50.809Z,3.75
2023-04-21T16:37:17.853Z,3.40
2023-04-21T16:39:46.129Z,3.75
2023-04-21T16:42:13.123Z,3.38
2023-04-21T16:44:40.349Z,3.90
2023-04-21T16:47:07.938Z,3.92
2023-04-21T16:49:35.004Z,3.28
2023-04-21T16:52:02.044Z,3.83
2023-04-21T16:54:28.968Z,3.97
2023-04-21T16:56:57.611Z,3.80
2023-04-21T16:59:24.670Z,3.95
2023-04-21T17:01:51.590Z,3.53
2023-04-21T17:04:18.687Z,3.33
2023-04-21T17:06:46.470Z,3.38
2023-04-21T17:09:14.087Z,3.55
2023-04-21T17:11:41.330Z,3.47
2023-04-21T17:14:08.869Z,4.30
2023-04-21T17:16:35.770Z,3.88
2023-04-21T17:19:02.900Z,3.47
2023-04-21T17:21:29.888Z,3.97
2023-04-21T17:23:58.235Z,3.97
2023-04-21T17:26:25.169Z,3.80
2023-04-21T17:28:52.311Z,3.50
2023-04-21T17:31:19.748Z,4.20
2023-04-21T17:33:46.781Z,4.10
2023-04-21T17:36:16.769Z,4.25
2023-04-21T17:38:43.825Z,4.30
2023-04-21T17:41:10.840Z,4.05
2023-04-21T17:43:37.857Z,4.90
2023-04-21T17:46:06.488Z,4.10
2023-04-21T17:48:35.135Z,3.90
2023-04-21T17:51:02.179Z,4.30
2023-04-21T17:53:29.085Z,3.92
2023-04-21T17:55:56.608Z,3.88
2023-04-21T17:58:25.500Z,3.90
2023-04-21T18:00:52.918Z,3.92
2023-04-21T18:03:19.999Z,3.85
2023-04-21T18:05:47.248Z,3.63
2023-04-21T18:08:14.673Z,4.05
2023-04-21T18:10:42.088Z,3.90
2023-04-21T18:13:09.156Z,3.88
2023-04-21T18:15:36.364Z,4.60
2023-04-21T18:18:03.844Z,4.45
2023-04-21T18:20:30.951Z,11.10
2023-04-21T18:22:58.129Z,29.38
2023-04-21T18:25:40.694Z,20.42
2023-04-21T18:28:11.114Z,20.02
2023-04-21T18:30:39.501Z,11.40
2023-04-21T18:33:06.506Z,5.88
2023-04-21T18:35:34.175Z,4.95
2023-04-21T18:38:01.309Z,3.92
2023-04-21T18:40:29.498Z,4.20
2023-04-21T18:42:56.988Z,3.88
2023-04-21T18:45:24.044Z,4.05
2023-04-21T18:47:50.996Z,3.63
2023-04-21T18:50:18.144Z,3.67
2023-04-21T18:52:46.022Z,7.60
2023-04-21T18:55:14.843Z,7.05
2023-04-21T18:57:42.059Z,5.45
2023-04-21T19:00:10.060Z,4.40
2023-04-21T19:02:38.234Z,3.95
2023-04-21T19:05:06.315Z,3.92
2023-04-21T19:07:35.691Z,3.83
2023-04-21T19:10:02.653Z,3.65
2023-04-21T19:12:29.927Z,4.28
2023-04-21T19:14:56.925Z,4.07
2023-04-21T19:17:23.918Z,4.13
2023-04-21T19:19:51.172Z,5.15
2023-04-21T19:22:20.011Z,6.75
2023-04-21T19:24:47.491Z,5.50
2023-04-21T19:27:14.787Z,4.70
2023-04-21T19:29:41.731Z,4.68
2023-04-21T19:32:11.292Z,4.43
2023-04-21T19:34:38.847Z,4.13
2023-04-21T19:37:06.660Z,4.10
2023-04-21T19:39:33.570Z,4.35
2023-04-21T19:42:01.226Z,4.63
2023-04-21T19:44:28.110Z,4.35
2023-04-21T19:46:55.151Z,4.60
2023-04-21T19:49:22.920Z,4.78
2023-04-21T19:51:50.010Z,4.28
2023-04-21T19:54:16.941Z,4.60
2023-04-21T19:56:44.789Z,5.07
2023-04-21T19:59:11.968Z,5.22
2023-04-21T20:01:39.097Z,4.85
2023-04-21T20:04:07.012Z,5.43
2023-04-21T20:06:34.444Z,4.85
2023-04-21T20:09:05.787Z,4.68
2023-04-21T20:11:36.437Z,4.60
2023-04-21T20:14:04.231Z,4.53
2023-04-21T20:16:32.065Z,4.32
2023-04-21T20:18:59.057Z,4.72
2023-04-21T20:21:26.108Z,4.40
2023-04-21T20:23:53.155Z,4.38
2023-04-21T20:26:20.823Z,4.50
2023-04-21T20:28:47.998Z,4.50
2023-04-21T20:31:15.210Z,4.75
2023-04-21T20:33:44.175Z,4.18
2023-04-21T20:36:11.912Z,4.78
2023-04-21T20:38:39.380Z,4.43
2023-04-21T20:41:06.610Z,4.65
2023-04-21T20:43:33.676Z,4.50
2023-04-21T20:46:01.913Z,4.75
2023-04-21T20:48:28.868Z,4.63
2023-04-21T20:50:56.048Z,5.35
2023-04-21T20:53:23.856Z,4.63
2023-04-21T20:55:54.791Z,4.57
2023-04-21T20:58:22.118Z,4.68
2023-04-21T21:00:49.163Z,5.03
2023-04-21T21:03:17.473Z,7.20
2023-04-21T21:05:44.549Z,6.55
2023-04-21T21:08:11.607Z,6.18
2023-04-21T21:10:38.866Z,5.45
2023-04-21T21:13:05.895Z,5.07
2023-04-21T21:15:32.953Z,5.35
2023-04-21T21:18:00.300Z,5.03
2023-04-21T21:20:27.346Z,5.60
2023-04-21T21:22:54.892Z,5.07
2023-04-21T21:25:21.875Z,5.25
2023-04-21T21:27:48.892Z,5.30
2023-04-21T21:30:15.998Z,4.70
2023-04-21T21:32:43.109Z,4.85
2023-04-21T21:35:10.489Z,5.30
2023-04-21T21:37:38.024Z,5.47
2023-04-21T21:40:07.187Z,5.70
2023-04-21T21:42:34.248Z,5.60
2023-04-21T21:45:01.404Z,5.40
2023-04-21T21:47:29.011Z,5.30
2023-04-21T21:49:58.769Z,5.68
2023-04-21T21:52:26.755Z,5.10
2023-04-21T21:54:55.224Z,5.22
2023-04-21T21:57:22.682Z,5.30
2023-04-21T21:59:50.792Z,5.68
2023-04-21T22:02:18.957Z,5.90
2023-04-21T22:04:46.133Z,5.90
2023-04-21T22:07:13.085Z,5.72
2023-04-21T22:09:40.606Z,5.93
2023-04-21T22:12:09.607Z,5.47
2023-04-21T22:14:38.007Z,5.97
2023-04-21T22:17:06.810Z,6.07
2023-04-21T22:19:34.289Z,6.28
2023-04-21T22:22:02.021Z,6.15
2023-04-21T22:24:29.017Z,5.97
2023-04-21T22:26:57.191Z,5.28
2023-04-21T22:29:24.512Z,5.68
2023-04-21T22:31:51.613Z,6.53
2023-04-21T22:34:19.849Z,6.00
2023-04-21T22:36:46.823Z,5.95
2023-04-21T22:39:14.740Z,6.28
2023-04-21T22:41:42.201Z,6.03
2023-04-21T22:44:09.298Z,6.85
2023-04-21T22:46:36.549Z,6.15
2023-04-21T22:49:04.025Z,5.90
2023-04-21T22:51:32.511Z,6.50
2023-04-21T22:54:00.361Z,6.30
2023-04-21T22:56:29.731Z,5.60
2023-04-21T22:58:56.962Z,6.00
2023-04-21T23:01:24.521Z,5.88
2023-04-21T23:03:51.994Z,5.90
2023-04-21T23:06:19.986Z,5.88
2023-04-21T23:08:46.951Z,6.32
2023-04-21T23:11:14.494Z,6.07
2023-04-21T23:13:41.460Z,6.07
2023-04-21T23:16:08.481Z,5.93
2023-04-21T23:18:35.997Z,6.32
2023-04-21T23:21:03.136Z,6.25
2023-04-21T23:23:30.120Z,6.35
2023-04-21T23:25:57.103Z,7.00
2023-04-21T23:28:25.127Z,6.18
2023-04-21T23:30:52.472Z,6.70
2023-04-21T23:33:19.452Z,6.43
2023-04-21T23:35:46.561Z,6.13
2023-04-21T23:38:13.873Z,6.80
2023-04-21T23:40:41.366Z,6.80
2023-04-21T23:43:08.512Z,6.35
2023-04-21T23:45:35.615Z,6.88
2023-04-21T23:48:02.560Z,6.65
2023-04-21T23:50:31.592Z,6.45
2023-04-21T23:52:58.571Z,6.28
2023-04-21T23:55:26.466Z,6.80
2023-04-21T23:57:53.479Z,6.93
